createdAt,value
2018-04-06T00:00:18.330Z,89.89
2018-04-06T00:02:45.835Z,89.92
2018-04-06T00:05:13.398Z,89.55
2018-04-06T00:07:40.977Z,89.98
2018-04-06T00:10:08.538Z,89.88
2018-04-06T00:12:36.046Z,89.90
2018-04-06T00:15:03.623Z,90.06
2018-04-06T00:17:31.132Z,90.07
2018-04-06T00:19:58.723Z,90.25
2018-04-06T00:22:26.287Z,90.37
2018-04-06T00:24:53.895Z,89.90
2018-04-06T00:27:21.398Z,89.85
2018-04-06T00:29:48.912Z,90.06
2018-04-06T00:32:16.424Z,89.92
2018-04-06T00:34:43.936Z,90.12
2018-04-06T00:37:11.441Z,90.07
2018-04-06T00:39:38.938Z,90.64
2018-04-06T00:42:06.440Z,90.59
2018-04-06T00:44:33.914Z,90.07
2018-04-06T00:47:01.439Z,90.08
2018-04-06T00:49:28.936Z,90.55
2018-04-06T00:51:56.639Z,90.36
2018-04-06T00:54:24.134Z,90.24
2018-04-06T00:56:51.632Z,90.42
2018-04-06T00:59:19.122Z,90.92
2018-04-06T01:01:46.653Z,91.00
2018-04-06T01:04:14.167Z,90.95
2018-04-06T01:06:41.667Z,91.12
2018-04-06T01:09:09.160Z,90.93
2018-04-06T01:11:36.638Z,90.77
2018-04-06T01:14:04.136Z,91.06
2018-04-06T01:16:31.614Z,90.97
2018-04-06T01:18:59.106Z,91.05
2018-04-06T01:21:26.610Z,90.74
2018-04-06T01:23:54.186Z,90.84
2018-04-06T01:26:21.701Z,91.06
2018-04-06T01:28:49.244Z,91.36
2018-04-06T01:31:16.727Z,90.77
2018-04-06T01:33:44.225Z,91.02
2018-04-06T01:36:11.745Z,90.95
2018-04-06T01:38:39.264Z,91.21
2018-04-06T01:41:06.792Z,91.43
2018-04-06T01:43:34.284Z,91.29
2018-04-06T01:46:01.774Z,91.54
2018-04-06T01:48:29.299Z,91.81
2018-04-06T01:50:56.799Z,91.85
2018-04-06T01:53:24.393Z,91.96
2018-04-06T01:55:51.905Z,91.34
2018-04-06T01:58:19.412Z,91.63
2018-04-06T02:00:46.893Z,91.85
2018-04-06T02:03:14.480Z,91.36
2018-04-06T02:05:41.994Z,91.30
2018-04-06T02:08:09.504Z,91.34
2018-04-06T02:10:37.117Z,91.69
2018-04-06T02:13:04.598Z,91.46
2018-04-06T02:15:32.092Z,91.50
2018-04-06T02:17:59.654Z,91.43
2018-04-06T02:20:27.140Z,91.31
2018-04-06T02:22:54.644Z,91.61
2018-04-06T02:25:22.188Z,91.71
2018-04-06T02:27:49.676Z,91.74
2018-04-06T02:30:17.209Z,91.95
2018-04-06T02:32:44.726Z,92.22
2018-04-06T02:35:12.219Z,92.50
2018-04-06T02:37:39.690Z,93.15
2018-04-06T02:40:07.202Z,93.33
2018-04-06T02:42:34.736Z,93.36
2018-04-06T02:45:02.259Z,93.38
2018-04-06T02:47:29.752Z,93.19
2018-04-06T02:49:57.299Z,92.94
2018-04-06T02:52:24.834Z,93.09
2018-04-06T02:54:52.330Z,93.01
2018-04-06T02:57:19.831Z,92.98
2018-04-06T02:59:47.328Z,93.08
2018-04-06T03:02:14.843Z,93.19
2018-04-06T03:04:42.376Z,93.29
2018-04-06T03:07:09.866Z,93.43
2018-04-06T03:09:37.338Z,93.43
2018-04-06T03:12:04.821Z,93.05
2018-04-06T03:14:32.306Z,93.26
2018-04-06T03:16:59.791Z,93.21
2018-04-06T03:19:27.263Z,93.09
2018-04-06T03:21:54.748Z,93.19
2018-04-06T03:24:22.247Z,93.30
2018-04-06T03:26:49.778Z,93.48
2018-04-06T03:29:17.267Z,93.81
2018-04-06T03:31:44.775Z,93.80
2018-04-06T03:34:12.264Z,93.64
2018-04-06T03:36:39.752Z,93.60
2018-04-06T03:39:07.236Z,93.72
2018-04-06T03:41:34.702Z,93.95
2018-04-06T03:44:02.219Z,94.00
2018-04-06T03:46:29.722Z,94.07
2018-04-06T03:48:57.226Z,94.36
2018-04-06T03:51:24.707Z,94.62
2018-04-06T03:53:52.199Z,94.53
2018-04-06T03:56:19.679Z,95.22
2018-04-06T03:58:47.184Z,94.77
2018-04-06T04:01:14.682Z,94.57
2018-04-06T04:03:42.181Z,94.75
2018-04-06T04:06:09.670Z,94.85
2018-04-06T04:08:37.152Z,94.75
2018-04-06T04:11:04.723Z,94.41
2018-04-06T04:13:32.233Z,94.97
2018-04-06T04:15:59.732Z,95.07
2018-04-06T04:18:27.265Z,94.75
2018-04-06T04:20:54.757Z,94.83
2018-04-06T04:23:22.232Z,94.82
2018-04-06T04:25:50.086Z,94.62
2018-04-06T04:28:17.592Z,94.74
2018-04-06T04:30:45.097Z,95.39
2018-04-06T04:33:12.601Z,95.72
2018-04-06T04:35:40.082Z,96.09
2018-04-06T04:38:07.572Z,95.78
2018-04-06T04:40:35.043Z,95.85
2018-04-06T04:43:02.564Z,95.90
2018-04-06T04:45:30.074Z,96.25
2018-04-06T04:47:57.561Z,96.27
2018-04-06T04:50:25.042Z,95.39
2018-04-06T04:52:52.509Z,95.48
2018-04-06T04:55:20.056Z,95.14
2018-04-06T04:57:47.534Z,95.44
2018-04-06T05:00:15.055Z,94.96
2018-04-06T05:02:42.564Z,95.37
2018-04-06T05:05:10.050Z,94.92
2018-04-06T05:07:37.529Z,95.07
2018-04-06T05:10:04.999Z,94.95
2018-04-06T05:12:32.479Z,94.44
2018-04-06T05:14:59.934Z,94.80
2018-04-06T05:17:27.444Z,93.95
2018-04-06T05:19:54.926Z,94.28
2018-04-06T05:22:22.409Z,93.45
2018-04-06T05:24:49.956Z,94.20
2018-04-06T05:27:17.493Z,94.41
2018-04-06T05:29:44.990Z,94.09
2018-04-06T05:32:12.496Z,92.95
2018-04-06T05:34:40.031Z,93.23
2018-04-06T05:37:07.537Z,92.09
2018-04-06T05:39:35.023Z,92.49
2018-04-06T05:42:02.554Z,92.83
2018-04-06T05:44:31.565Z,91.99
2018-04-06T05:47:02.618Z,92.98
2018-04-06T05:49:32.743Z,91.34
2018-04-06T05:52:01.271Z,92.15
2018-04-06T05:54:28.763Z,92.34
2018-04-06T05:56:56.273Z,91.11
2018-04-06T05:59:24.217Z,88.77
2018-04-06T06:01:53.434Z,85.81
2018-04-06T06:04:20.966Z,80.84
2018-04-06T06:06:48.460Z,76.89
2018-04-06T06:09:15.961Z,73.71
2018-04-06T06:11:43.829Z,68.58
2018-04-06T06:14:11.826Z,67.36
2018-04-06T06:16:39.334Z,67.59
2018-04-06T06:19:06.840Z,65.13
2018-04-06T06:21:34.371Z,62.31
2018-04-06T06:24:01.862Z,62.19
2018-04-06T06:26:30.040Z,59.55
2018-04-06T06:28:57.565Z,59.96
2018-04-06T06:31:25.034Z,58.86
2018-04-06T06:33:52.545Z,56.63
2018-04-06T06:36:20.210Z,57.95
2018-04-06T06:38:49.948Z,57.39
2018-04-06T06:41:17.508Z,56.46
2018-04-06T06:43:45.025Z,58.97
2018-04-06T06:46:12.545Z,56.84
2018-04-06T06:48:40.068Z,57.12
2018-04-06T06:51:07.582Z,58.61
2018-04-06T06:53:35.071Z,59.95
2018-04-06T06:56:02.562Z,58.33
2018-04-06T06:58:30.043Z,57.52
2018-04-06T07:00:57.633Z,58.26
2018-04-06T07:03:25.085Z,60.32
2018-04-06T07:05:52.571Z,58.58
2018-04-06T07:08:21.732Z,59.91
2018-04-06T07:10:49.231Z,60.46
2018-04-06T07:13:16.741Z,58.44
2018-04-06T07:15:44.257Z,58.77
2018-04-06T07:18:13.259Z,59.52
2018-04-06T07:20:40.774Z,58.34
2018-04-06T07:23:08.279Z,58.12
2018-04-06T07:25:38.119Z,58.19
2018-04-06T07:28:05.635Z,57.98
2018-04-06T07:30:34.372Z,54.33
2018-04-06T07:33:03.719Z,58.48
2018-04-06T07:35:31.228Z,58.38
2018-04-06T07:37:58.706Z,55.99
2018-04-06T07:40:29.980Z,55.11
2018-04-06T07:42:57.768Z,52.89
2018-04-06T07:45:25.266Z,50.49
2018-04-06T07:47:56.608Z,52.38
2018-04-06T07:50:24.121Z,48.68
2018-04-06T07:52:58.095Z,51.48
2018-04-06T07:55:25.636Z,50.37
2018-04-06T07:57:53.132Z,49.35
2018-04-06T08:00:22.209Z,50.03
2018-04-06T08:02:49.700Z,51.17
2018-04-06T08:05:19.546Z,48.45
2018-04-06T08:07:47.048Z,48.05
2018-04-06T08:10:14.535Z,47.23
2018-04-06T08:12:42.083Z,49.62
2018-04-06T08:15:09.586Z,46.35
2018-04-06T08:17:37.102Z,47.98
2018-04-06T08:20:04.586Z,46.69
2018-04-06T08:22:32.074Z,49.76
2018-04-06T08:24:59.577Z,48.80
2018-04-06T08:27:28.058Z,47.46
2018-04-06T08:29:55.559Z,50.07
2018-04-06T08:32:23.060Z,49.09
2018-04-06T08:34:50.566Z,45.60
2018-04-06T08:37:18.074Z,47.44
2018-04-06T08:39:45.560Z,46.62
2018-04-06T08:42:14.238Z,49.25
2018-04-06T08:44:41.786Z,48.45
2018-04-06T08:47:09.270Z,51.20
2018-04-06T08:49:36.786Z,50.82
2018-04-06T08:52:04.307Z,51.64
2018-04-06T08:54:32.315Z,50.22
2018-04-06T08:56:59.829Z,51.52
2018-04-06T08:59:27.719Z,55.57
2018-04-06T09:01:55.202Z,56.72
2018-04-06T09:04:22.690Z,56.26
2018-04-06T09:06:50.198Z,56.04
2018-04-06T09:09:17.674Z,58.35
2018-04-06T09:11:45.162Z,59.26
2018-04-06T09:14:12.648Z,61.64
2018-04-06T09:16:40.214Z,61.01
2018-04-06T09:19:07.697Z,58.93
2018-04-06T09:21:35.205Z,61.46
2018-04-06T09:24:02.691Z,58.58
2018-04-06T09:26:30.813Z,54.84
2018-04-06T09:28:58.304Z,54.72
2018-04-06T09:31:26.066Z,55.35
2018-04-06T09:33:53.701Z,55.56
2018-04-06T09:36:21.191Z,52.39
2018-04-06T09:38:48.665Z,57.01
2018-04-06T09:41:16.175Z,56.90
2018-04-06T09:43:43.662Z,54.46
2018-04-06T09:46:11.139Z,57.84
2018-04-06T09:48:38.622Z,57.13
2018-04-06T09:51:06.106Z,56.41
2018-04-06T09:53:33.628Z,51.69
2018-04-06T09:56:01.175Z,51.88
2018-04-06T09:58:28.650Z,54.48
2018-04-06T10:00:58.491Z,56.95
2018-04-06T10:03:25.971Z,56.07
2018-04-06T10:05:53.463Z,56.93
2018-04-06T10:08:21.028Z,56.01
2018-04-06T10:10:48.521Z,52.45
2018-04-06T10:13:16.097Z,55.00
2018-04-06T10:15:43.585Z,58.80
2018-04-06T10:18:11.072Z,58.66
2018-04-06T10:20:38.552Z,54.79
2018-04-06T10:23:06.042Z,56.35
2018-04-06T10:25:33.646Z,55.66
2018-04-06T10:28:01.200Z,58.04
2018-04-06T10:30:28.654Z,54.16
2018-04-06T10:32:56.158Z,56.16
2018-04-06T10:35:23.695Z,56.75
2018-04-06T10:37:51.219Z,54.90
2018-04-06T10:40:18.771Z,57.10
2018-04-06T10:42:46.270Z,57.72
2018-04-06T10:45:13.750Z,54.35
2018-04-06T10:47:41.238Z,53.42
2018-04-06T10:50:08.718Z,55.59
2018-04-06T10:52:36.189Z,54.96
2018-04-06T10:55:03.706Z,55.63
2018-04-06T10:57:31.203Z,56.11
2018-04-06T10:59:58.688Z,52.39
2018-04-06T11:02:26.182Z,53.29
2018-04-06T11:04:53.658Z,53.01
2018-04-06T11:07:21.139Z,51.88
2018-04-06T11:09:48.645Z,54.29
2018-04-06T11:12:16.132Z,50.27
2018-04-06T11:14:45.220Z,50.45
2018-04-06T11:17:12.743Z,51.50
2018-04-06T11:19:40.203Z,51.43
2018-04-06T11:22:07.694Z,47.78
2018-04-06T11:24:35.195Z,48.55
2018-04-06T11:27:02.673Z,47.39
2018-04-06T11:29:30.178Z,48.45
2018-04-06T11:31:57.662Z,48.33
2018-04-06T11:34:25.156Z,47.17
2018-04-06T11:36:52.637Z,41.00
2018-04-06T11:39:20.154Z,40.35
2018-04-06T11:41:47.646Z,41.70
2018-04-06T11:44:15.130Z,41.88
2018-04-06T11:46:42.609Z,39.45
2018-04-06T11:49:10.093Z,39.88
2018-04-06T11:51:37.575Z,42.18
2018-04-06T11:54:05.059Z,43.98
2018-04-06T11:56:32.722Z,43.49
2018-04-06T11:59:00.197Z,44.23
2018-04-06T12:01:27.681Z,44.28
2018-04-06T12:03:58.163Z,43.91
2018-04-06T12:06:25.659Z,44.64
2018-04-06T12:08:53.154Z,44.77
2018-04-06T12:11:20.632Z,46.66
2018-04-06T12:13:48.102Z,48.38
2018-04-06T12:16:15.601Z,45.29
2018-04-06T12:18:43.098Z,46.51
2018-04-06T12:21:10.603Z,46.55
2018-04-06T12:23:38.099Z,46.48
2018-04-06T12:26:05.609Z,46.15
2018-04-06T12:28:33.080Z,45.65
2018-04-06T12:31:00.574Z,45.35
2018-04-06T12:33:28.127Z,45.35
2018-04-06T12:35:55.709Z,43.72
2018-04-06T12:38:23.380Z,43.49
2018-04-06T12:40:50.942Z,42.68
2018-04-06T12:43:20.388Z,42.29
2018-04-06T12:45:47.935Z,42.60
2018-04-06T12:48:15.482Z,43.03
2018-04-06T12:50:42.983Z,41.83
2018-04-06T12:53:10.677Z,43.60
2018-04-06T12:55:38.208Z,41.66
2018-04-06T12:58:05.716Z,41.82
2018-04-06T13:00:33.198Z,38.48
2018-04-06T13:03:00.746Z,40.72
2018-04-06T13:05:28.179Z,43.97
2018-04-06T13:07:55.661Z,39.32
2018-04-06T13:10:23.358Z,39.67
2018-04-06T13:12:50.848Z,39.92
2018-04-06T13:15:18.346Z,42.30
2018-04-06T13:17:45.834Z,40.46
2018-04-06T13:20:13.318Z,42.22
2018-04-06T13:22:40.810Z,41.51
2018-04-06T13:25:08.286Z,40.96
2018-04-06T13:27:35.765Z,40.18
2018-04-06T13:30:03.237Z,39.54
2018-04-06T13:32:30.725Z,40.76
2018-04-06T13:34:58.218Z,40.42
2018-04-06T13:37:27.917Z,39.85
2018-04-06T13:39:55.645Z,39.10
2018-04-06T13:42:23.137Z,41.08
2018-04-06T13:44:51.101Z,41.31
2018-04-06T13:47:18.591Z,41.61
2018-04-06T13:49:46.246Z,42.12
2018-04-06T13:52:13.979Z,40.53
2018-04-06T13:54:41.508Z,38.85
2018-04-06T13:57:09.349Z,39.72
2018-04-06T13:59:36.867Z,39.96
2018-04-06T14:02:04.392Z,42.77
2018-04-06T14:04:31.913Z,40.58
2018-04-06T14:07:01.171Z,40.99
2018-04-06T14:09:28.682Z,40.65
2018-04-06T14:11:56.240Z,39.65
2018-04-06T14:14:23.780Z,40.73
2018-04-06T14:16:52.287Z,38.64
2018-04-06T14:19:19.781Z,39.85
2018-04-06T14:21:47.325Z,40.51
2018-04-06T14:24:17.090Z,41.17
2018-04-06T14:26:44.783Z,41.21
2018-04-06T14:29:12.364Z,41.91
2018-04-06T14:31:39.866Z,41.54
2018-04-06T14:34:07.348Z,40.49
2018-04-06T14:36:34.818Z,43.25
2018-04-06T14:39:02.298Z,43.44
2018-04-06T14:41:29.795Z,42.75
2018-04-06T14:43:57.305Z,41.45
2018-04-06T14:46:24.845Z,41.64
2018-04-06T14:48:52.686Z,40.26
2018-04-06T14:51:20.198Z,42.04
2018-04-06T14:53:47.691Z,39.40
2018-04-06T14:56:15.425Z,40.27
2018-04-06T14:58:43.765Z,39.94
2018-04-06T15:01:11.254Z,39.71
2018-04-06T15:03:39.913Z,40.78
2018-04-06T15:06:07.398Z,42.61
2018-04-06T15:08:37.569Z,43.15
2018-04-06T15:11:05.053Z,43.91
2018-04-06T15:16:06.769Z,42.31
2018-04-06T15:18:34.266Z,42.27
2018-04-06T15:21:01.748Z,42.16
2018-04-06T15:23:29.253Z,42.45
2018-04-06T15:25:56.747Z,41.78
2018-04-06T15:28:24.248Z,40.46
2018-04-06T15:30:51.753Z,41.21
2018-04-06T15:33:20.143Z,42.29
2018-04-06T15:35:47.621Z,40.81
2018-04-06T15:38:16.600Z,41.66
2018-04-06T15:40:44.136Z,43.47
2018-04-06T15:43:15.491Z,41.84
2018-04-06T15:45:43.006Z,42.81
2018-04-06T15:48:10.534Z,41.71
2018-04-06T15:50:38.016Z,44.14
2018-04-06T15:53:05.521Z,43.75
2018-04-06T15:55:33.027Z,45.05
2018-04-06T15:58:00.597Z,44.88
2018-04-06T16:00:28.133Z,45.56
2018-04-06T16:02:55.825Z,43.99
2018-04-06T16:05:25.603Z,43.92
2018-04-06T16:07:53.081Z,45.41
2018-04-06T16:10:23.430Z,45.39
2018-04-06T16:12:50.930Z,44.43
2018-04-06T16:15:18.424Z,44.61
2018-04-06T16:17:45.923Z,45.19
2018-04-06T16:20:13.436Z,45.96
2018-04-06T16:22:42.234Z,46.81
2018-04-06T16:25:09.750Z,48.15
2018-04-06T16:27:37.248Z,47.67
2018-04-06T16:30:04.729Z,47.38
2018-04-06T16:32:32.298Z,47.02
2018-04-06T16:34:59.776Z,46.82
2018-04-06T16:37:27.264Z,46.95
2018-04-06T16:39:54.831Z,47.71
2018-04-06T16:42:22.393Z,48.59
2018-04-06T16:44:49.911Z,48.70
2018-04-06T16:47:18.479Z,48.70
2018-04-06T16:49:46.140Z,49.51
2018-04-06T16:52:14.247Z,48.53
2018-04-06T16:54:41.727Z,48.40
2018-04-06T16:57:11.164Z,48.67
2018-04-06T16:59:39.158Z,48.51
2018-04-06T17:02:06.659Z,48.73
2018-04-06T17:04:34.173Z,49.69
2018-04-06T17:07:01.668Z,49.01
2018-04-06T17:09:29.169Z,49.08
2018-04-06T17:11:56.746Z,50.02
2018-04-06T17:14:24.336Z,50.38
2018-04-06T17:16:51.870Z,50.76
2018-04-06T17:19:19.451Z,51.77
2018-04-06T17:21:46.925Z,52.47
2018-04-06T17:24:14.402Z,52.56
2018-04-06T17:26:41.994Z,53.21
2018-04-06T17:29:09.514Z,53.09
2018-04-06T17:31:38.615Z,53.38
2018-04-06T17:34:06.112Z,54.20
2018-04-06T17:36:33.648Z,55.13
2018-04-06T17:39:02.667Z,55.50
2018-04-06T17:41:30.930Z,55.95
2018-04-06T17:44:00.768Z,56.59
2018-04-06T17:46:28.265Z,56.52
2018-04-06T17:48:55.747Z,56.74
2018-04-06T17:51:23.276Z,56.72
2018-04-06T17:53:50.782Z,56.25
2018-04-06T17:56:18.319Z,56.08
2018-04-06T17:58:45.851Z,56.25
2018-04-06T18:01:13.412Z,55.61
2018-04-06T18:03:40.908Z,56.03
2018-04-06T18:06:08.377Z,55.63
2018-04-06T18:08:36.087Z,55.04
2018-04-06T18:11:03.602Z,55.72
2018-04-06T18:13:31.119Z,56.34
2018-04-06T18:15:58.653Z,55.53
2018-04-06T18:18:26.170Z,56.24
2018-04-06T18:20:53.674Z,55.98
2018-04-06T18:23:21.193Z,56.75
2018-04-06T18:25:48.721Z,56.23
2018-04-06T18:28:16.255Z,57.08
2018-04-06T18:30:43.808Z,56.98
2018-04-06T18:33:11.308Z,56.80
2018-04-06T18:35:38.782Z,57.17
2018-04-06T18:38:06.281Z,56.87
2018-04-06T18:40:33.764Z,57.96
2018-04-06T18:43:01.314Z,57.74
2018-04-06T18:45:28.847Z,58.09
2018-04-06T18:47:56.320Z,58.82
2018-04-06T18:50:23.825Z,59.53
2018-04-06T18:52:51.339Z,59.05
2018-04-06T18:55:18.829Z,59.46
2018-04-06T18:57:46.328Z,60.24
2018-04-06T19:00:14.208Z,60.33
2018-04-06T19:02:42.553Z,60.63
2018-04-06T19:05:10.069Z,59.32
2018-04-06T19:08:04.789Z,59.68
2018-04-06T19:10:32.285Z,60.00
2018-04-06T19:13:00.028Z,60.11
2018-04-06T19:15:27.774Z,60.49
2018-04-06T19:17:55.306Z,59.82
2018-04-06T19:20:22.890Z,59.89
2018-04-06T19:22:51.402Z,60.11
2018-04-06T19:25:18.946Z,60.33
2018-04-06T19:27:47.338Z,61.01
2018-04-06T19:30:16.034Z,59.83
2018-04-06T19:32:43.609Z,60.33
2018-04-06T19:35:11.235Z,60.16
2018-04-06T19:37:38.822Z,60.45
2018-04-06T19:40:06.342Z,60.62
2018-04-06T19:42:33.934Z,61.35
2018-04-06T19:45:01.931Z,61.73
2018-04-06T19:47:29.580Z,62.43
2018-04-06T19:49:58.537Z,61.66
2018-04-06T19:52:26.048Z,61.61
2018-04-06T19:54:53.968Z,61.04
2018-04-06T19:57:21.634Z,60.73
2018-04-06T19:59:49.343Z,61.04
2018-04-06T20:02:16.821Z,61.33
2018-04-06T20:04:44.890Z,61.24
2018-04-06T20:07:12.404Z,61.00
2018-04-06T20:09:39.917Z,61.04
2018-04-06T20:12:07.439Z,61.55
2018-04-06T20:14:35.058Z,61.39
2018-04-06T20:17:02.577Z,61.25
2018-04-06T20:19:30.793Z,60.70
2018-04-06T20:21:58.909Z,60.94
2018-04-06T20:24:26.395Z,59.97
2018-04-06T20:26:53.903Z,62.32
2018-04-06T20:29:21.407Z,60.76
2018-04-06T20:31:49.148Z,60.09
2018-04-06T20:34:16.635Z,59.95
2018-04-06T20:36:44.156Z,59.85
2018-04-06T20:39:11.678Z,60.47
2018-04-06T20:41:39.217Z,59.65
2018-04-06T20:44:06.734Z,59.71
2018-04-06T20:46:34.312Z,60.85
2018-04-06T20:49:01.792Z,61.55
2018-04-06T20:51:29.319Z,61.76
2018-04-06T20:53:56.959Z,62.73
2018-04-06T20:56:24.474Z,62.39
2018-04-06T20:58:51.984Z,62.38
2018-04-06T21:01:19.554Z,63.27
2018-04-06T21:03:47.113Z,62.80
2018-04-06T21:06:14.649Z,62.53
2018-04-06T21:08:42.203Z,63.87
2018-04-06T21:11:09.726Z,62.44
2018-04-06T21:13:37.284Z,62.34
2018-04-06T21:16:04.786Z,62.55
2018-04-06T21:18:32.324Z,62.98
2018-04-06T21:20:59.813Z,63.75
2018-04-06T21:23:27.365Z,63.36
2018-04-06T21:25:55.429Z,62.97
2018-04-06T21:28:23.819Z,63.59
2018-04-06T21:30:51.323Z,63.62
2018-04-06T21:33:18.865Z,64.34
2018-04-06T21:35:46.509Z,65.40
2018-04-06T21:38:14.142Z,64.31
2018-04-06T21:40:42.552Z,64.42
2018-04-06T21:43:10.174Z,64.52
2018-04-06T21:45:37.758Z,64.78
2018-04-06T21:48:05.369Z,64.80
2018-04-06T21:50:33.289Z,64.91
2018-04-06T21:53:00.926Z,65.70
2018-04-06T21:55:28.573Z,65.20
2018-04-06T21:57:56.225Z,65.40
2018-04-06T22:00:23.840Z,64.94
2018-04-06T22:02:51.340Z,65.42
2018-04-06T22:05:18.955Z,65.31
2018-04-06T22:07:46.714Z,65.25
2018-04-06T22:10:14.716Z,66.58
2018-04-06T22:12:42.396Z,65.66
2018-04-06T22:15:09.883Z,65.36
2018-04-06T22:17:37.560Z,65.39
2018-04-06T22:20:05.247Z,65.52
2018-04-06T22:35:28.018Z,66.71
2018-04-06T22:37:55.686Z,64.91
2018-04-06T22:40:23.266Z,64.53
2018-04-06T22:42:50.919Z,64.16
2018-04-06T22:45:18.480Z,64.31
2018-04-06T22:47:46.052Z,63.86
2018-04-06T22:50:13.808Z,65.10
2018-04-06T22:52:41.381Z,63.72
2018-04-06T22:55:08.920Z,64.19
2018-04-06T22:57:36.408Z,64.39
2018-04-06T23:00:03.910Z,64.10
2018-04-06T23:02:31.419Z,63.79
2018-04-06T23:04:58.904Z,63.80
2018-04-06T23:07:26.423Z,63.29
2018-04-06T23:09:53.974Z,63.88
2018-04-06T23:12:21.471Z,63.42
2018-04-06T23:14:48.970Z,63.52
2018-04-06T23:17:17.694Z,63.49
2018-04-06T23:19:45.206Z,63.61
2018-04-06T23:22:13.506Z,62.99
2018-04-06T23:24:41.005Z,62.87
2018-04-06T23:27:08.530Z,62.95
2018-04-06T23:29:36.022Z,63.01
2018-04-06T23:32:03.544Z,63.89
2018-04-06T23:34:31.040Z,63.05
2018-04-06T23:36:58.521Z,63.22
2018-04-06T23:39:26.012Z,63.70
2018-04-06T23:41:53.513Z,63.21
2018-04-06T23:44:21.028Z,63.21
2018-04-06T23:46:48.514Z,63.05
2018-04-06T23:49:16.039Z,63.59
2018-04-06T23:51:43.516Z,63.38
2018-04-06T23:54:11.020Z,63.11
2018-04-06T23:56:38.524Z,63.89
2018-04-06T23:59:06.008Z,63.06
